Virginville, Pennsylvania
Current Conditions -  °F | °C
As of 4:54 PM on Monday 26 Jan 2015 (Local Time) from KRDG Reporting Station
Overcast Overcast  
Wind Chill: 12°   Ceiling: 4500
Heat Index: 22°   Visibility: 10mi
Dew Point: 15°   Wind: 9mph
Humidity: 75%   Direction: 40°NE
Pressure: 29.79"   Gusts: NA
Location:  40.52°N, 75.87°W
Report Text: KRDG 262154Z 04008KT 10SM FEW028 SCT038 OVC045 M06/M09 A2979 RMK AO2 SLP099 T10561094
Loading
Personal Weather Stations






























Interactive Weather Map New forecast layout! Learn more

10-Day Weather Forecast

Advertisements
Track Severe Weather on mobile